sensor_id;sensor_type;location;lat;lon;timestamp;P1;durP1;ratioP1;P2;durP2;ratioP2
51664;SDS011;37751;52.408;12.536;2022-09-09T00:04:37;11.18;;;6.82;;
51664;SDS011;37751;52.408;12.536;2022-09-09T00:13:52;8.80;;;7.30;;
51664;SDS011;37751;52.408;12.536;2022-09-09T00:16:19;8.85;;;6.75;;
51664;SDS011;37751;52.408;12.536;2022-09-09T00:21:36;8.25;;;6.63;;
51664;SDS011;37751;52.408;12.536;2022-09-09T00:29:51;10.18;;;7.53;;
51664;SDS011;37751;52.408;12.536;2022-09-09T00:32:24;13.52;;;7.63;;
51664;SDS011;37751;52.408;12.536;2022-09-09T00:35:02;7.82;;;6.70;;
51664;SDS011;37751;52.408;12.536;2022-09-09T00:37:52;8.70;;;7.57;;
51664;SDS011;37751;52.408;12.536;2022-09-09T00:40:33;9.15;;;7.72;;
51664;SDS011;37751;52.408;12.536;2022-09-09T01:05:44;8.90;;;6.93;;
51664;SDS011;37751;52.408;12.536;2022-09-09T01:08:38;12.38;;;7.75;;
51664;SDS011;37751;52.408;12.536;2022-09-09T01:11:32;10.35;;;7.60;;
51664;SDS011;37751;52.408;12.536;2022-09-09T01:22:22;13.77;;;7.38;;
51664;SDS011;37751;52.408;12.536;2022-09-09T01:25:07;7.95;;;6.85;;
51664;SDS011;37751;52.408;12.536;2022-09-09T01:28:13;8.60;;;7.47;;
51664;SDS011;37751;52.408;12.536;2022-09-09T01:30:47;11.43;;;7.30;;
51664;SDS011;37751;52.408;12.536;2022-09-09T01:33:17;10.65;;;6.80;;
51664;SDS011;37751;52.408;12.536;2022-09-09T01:35:48;10.82;;;6.85;;
51664;SDS011;37751;52.408;12.536;2022-09-09T01:38:20;8.25;;;7.22;;
51664;SDS011;37751;52.408;12.536;2022-09-09T01:40:48;10.70;;;7.18;;
51664;SDS011;37751;52.408;12.536;2022-09-09T01:43:19;8.60;;;6.65;;
51664;SDS011;37751;52.408;12.536;2022-09-09T01:45:48;9.07;;;6.55;;
51664;SDS011;37751;52.408;12.536;2022-09-09T01:48:19;8.30;;;6.07;;
51664;SDS011;37751;52.408;12.536;2022-09-09T01:50:47;8.93;;;6.35;;
51664;SDS011;37751;52.408;12.536;2022-09-09T01:53:14;8.48;;;6.68;;
51664;SDS011;37751;52.408;12.536;2022-09-09T01:56:28;9.02;;;6.75;;
51664;SDS011;37751;52.408;12.536;2022-09-09T01:58:47;10.30;;;7.10;;
51664;SDS011;37751;52.408;12.536;2022-09-09T02:01:43;8.63;;;6.55;;
51664;SDS011;37751;52.408;12.536;2022-09-09T02:04:37;7.88;;;6.28;;
51664;SDS011;37751;52.408;12.536;2022-09-09T02:10:16;9.82;;;6.60;;
51664;SDS011;37751;52.408;12.536;2022-09-09T02:13:27;12.35;;;7.93;;
51664;SDS011;37751;52.408;12.536;2022-09-09T02:18:44;14.55;;;7.72;;
51664;SDS011;37751;52.408;12.536;2022-09-09T02:21:24;7.60;;;6.63;;
51664;SDS011;37751;52.408;12.536;2022-09-09T02:23:56;10.65;;;6.95;;
51664;SDS011;37751;52.408;12.536;2022-09-09T02:26:31;9.18;;;6.40;;
51664;SDS011;37751;52.408;12.536;2022-09-09T02:29:01;11.23;;;6.25;;
51664;SDS011;37751;52.408;12.536;2022-09-09T02:31:31;12.27;;;7.00;;
51664;SDS011;37751;52.408;12.536;2022-09-09T02:34:01;12.13;;;7.03;;
51664;SDS011;37751;52.408;12.536;2022-09-09T02:36:31;9.00;;;6.72;;
51664;SDS011;37751;52.408;12.536;2022-09-09T02:39:02;10.13;;;6.60;;
51664;SDS011;37751;52.408;12.536;2022-09-09T02:41:32;12.32;;;6.63;;
51664;SDS011;37751;52.408;12.536;2022-09-09T02:44:01;8.85;;;5.93;;
51664;SDS011;37751;52.408;12.536;2022-09-09T02:46:45;10.02;;;6.47;;
51664;SDS011;37751;52.408;12.536;2022-09-09T02:49:24;13.68;;;6.53;;
51664;SDS011;37751;52.408;12.536;2022-09-09T02:52:07;9.48;;;6.40;;
51664;SDS011;37751;52.408;12.536;2022-09-09T02:54:41;8.45;;;6.80;;
51664;SDS011;37751;52.408;12.536;2022-09-09T02:59:48;10.27;;;6.32;;
51664;SDS011;37751;52.408;12.536;2022-09-09T03:02:18;14.82;;;7.45;;
51664;SDS011;37751;52.408;12.536;2022-09-09T03:04:45;14.65;;;7.75;;
51664;SDS011;37751;52.408;12.536;2022-09-09T03:07:17;7.07;;;6.03;;
51664;SDS011;37751;52.408;12.536;2022-09-09T03:09:45;13.15;;;6.93;;
51664;SDS011;37751;52.408;12.536;2022-09-09T03:12:11;10.85;;;7.22;;
51664;SDS011;37751;52.408;12.536;2022-09-09T03:14:38;9.73;;;6.78;;
51664;SDS011;37751;52.408;12.536;2022-09-09T03:17:06;10.07;;;7.03;;
51664;SDS011;37751;52.408;12.536;2022-09-09T03:19:32;8.45;;;7.00;;
51664;SDS011;37751;52.408;12.536;2022-09-09T03:22:00;9.93;;;6.55;;
51664;SDS011;37751;52.408;12.536;2022-09-09T03:24:27;9.45;;;6.85;;
51664;SDS011;37751;52.408;12.536;2022-09-09T03:26:54;10.40;;;6.63;;
51664;SDS011;37751;52.408;12.536;2022-09-09T03:29:21;9.18;;;6.80;;
51664;SDS011;37751;52.408;12.536;2022-09-09T03:31:48;13.60;;;7.00;;
51664;SDS011;37751;52.408;12.536;2022-09-09T03:34:16;9.75;;;6.63;;
51664;SDS011;37751;52.408;12.536;2022-09-09T03:36:43;11.52;;;6.63;;
51664;SDS011;37751;52.408;12.536;2022-09-09T03:39:10;6.53;;;5.93;;
51664;SDS011;37751;52.408;12.536;2022-09-09T03:41:36;6.82;;;6.07;;
51664;SDS011;37751;52.408;12.536;2022-09-09T03:44:03;10.45;;;6.28;;
51664;SDS011;37751;52.408;12.536;2022-09-09T03:46:30;7.65;;;6.15;;
51664;SDS011;37751;52.408;12.536;2022-09-09T03:48:57;10.80;;;6.18;;
51664;SDS011;37751;52.408;12.536;2022-09-09T03:51:24;9.13;;;5.75;;
51664;SDS011;37751;52.408;12.536;2022-09-09T03:53:51;10.57;;;6.47;;
51664;SDS011;37751;52.408;12.536;2022-09-09T03:56:18;6.65;;;5.60;;
51664;SDS011;37751;52.408;12.536;2022-09-09T03:58:47;12.75;;;6.45;;
51664;SDS011;37751;52.408;12.536;2022-09-09T04:01:14;8.70;;;5.85;;
51664;SDS011;37751;52.408;12.536;2022-09-09T04:03:42;10.35;;;6.10;;
51664;SDS011;37751;52.408;12.536;2022-09-09T04:06:11;10.52;;;5.75;;
51664;SDS011;37751;52.408;12.536;2022-09-09T04:08:40;12.18;;;5.68;;
51664;SDS011;37751;52.408;12.536;2022-09-09T04:11:07;8.95;;;4.82;;
51664;SDS011;37751;52.408;12.536;2022-09-09T04:13:36;8.63;;;5.90;;
51664;SDS011;37751;52.408;12.536;2022-09-09T04:16:09;8.80;;;5.80;;
51664;SDS011;37751;52.408;12.536;2022-09-09T04:18:38;8.60;;;5.43;;
51664;SDS011;37751;52.408;12.536;2022-09-09T04:21:05;11.48;;;5.93;;
51664;SDS011;37751;52.408;12.536;2022-09-09T04:23:33;12.45;;;5.65;;
51664;SDS011;37751;52.408;12.536;2022-09-09T04:26:01;7.75;;;6.32;;
51664;SDS011;37751;52.408;12.536;2022-09-09T04:28:29;8.80;;;5.53;;
51664;SDS011;37751;52.408;12.536;2022-09-09T04:31:06;9.32;;;5.72;;
51664;SDS011;37751;52.408;12.536;2022-09-09T04:33:37;12.30;;;6.03;;
51664;SDS011;37751;52.408;12.536;2022-09-09T04:36:06;12.65;;;6.22;;
51664;SDS011;37751;52.408;12.536;2022-09-09T04:38:33;10.27;;;5.88;;
51664;SDS011;37751;52.408;12.536;2022-09-09T04:41:00;13.43;;;5.82;;
51664;SDS011;37751;52.408;12.536;2022-09-09T04:43:27;12.98;;;6.82;;
51664;SDS011;37751;52.408;12.536;2022-09-09T04:45:54;25.48;;;12.05;;
51664;SDS011;37751;52.408;12.536;2022-09-09T04:48:22;10.48;;;7.40;;
51664;SDS011;37751;52.408;12.536;2022-09-09T04:50:58;7.32;;;5.35;;
51664;SDS011;37751;52.408;12.536;2022-09-09T04:53:31;11.85;;;5.30;;
51664;SDS011;37751;52.408;12.536;2022-09-09T04:58:41;12.48;;;5.28;;
51664;SDS011;37751;52.408;12.536;2022-09-09T05:01:15;9.35;;;4.53;;
51664;SDS011;37751;52.408;12.536;2022-09-09T05:03:45;10.07;;;5.32;;
51664;SDS011;37751;52.408;12.536;2022-09-09T05:06:13;10.07;;;5.70;;
51664;SDS011;37751;52.408;12.536;2022-09-09T05:08:43;10.15;;;4.90;;
51664;SDS011;37751;52.408;12.536;2022-09-09T05:11:17;10.98;;;5.05;;
51664;SDS011;37751;52.408;12.536;2022-09-09T05:13:49;9.23;;;4.88;;
51664;SDS011;37751;52.408;12.536;2022-09-09T05:16:17;12.38;;;5.68;;
51664;SDS011;37751;52.408;12.536;2022-09-09T05:18:45;10.07;;;5.65;;
51664;SDS011;37751;52.408;12.536;2022-09-09T05:21:13;7.40;;;5.40;;
51664;SDS011;37751;52.408;12.536;2022-09-09T05:23:41;14.13;;;4.93;;
51664;SDS011;37751;52.408;12.536;2022-09-09T05:26:18;18.83;;;5.40;;
51664;SDS011;37751;52.408;12.536;2022-09-09T05:28:46;8.38;;;5.40;;
51664;SDS011;37751;52.408;12.536;2022-09-09T05:31:14;14.98;;;4.93;;
51664;SDS011;37751;52.408;12.536;2022-09-09T05:33:44;10.30;;;4.65;;
51664;SDS011;37751;52.408;12.536;2022-09-09T05:36:13;12.50;;;4.60;;
51664;SDS011;37751;52.408;12.536;2022-09-09T05:38:43;15.02;;;5.10;;
51664;SDS011;37751;52.408;12.536;2022-09-09T05:41:10;14.13;;;5.22;;
51664;SDS011;37751;52.408;12.536;2022-09-09T05:43:38;11.05;;;5.55;;
51664;SDS011;37751;52.408;12.536;2022-09-09T05:46:08;11.15;;;4.10;;
51664;SDS011;37751;52.408;12.536;2022-09-09T05:48:46;10.18;;;4.40;;
51664;SDS011;37751;52.408;12.536;2022-09-09T05:51:15;13.23;;;4.88;;
51664;SDS011;37751;52.408;12.536;2022-09-09T05:53:48;12.55;;;4.55;;
51664;SDS011;37751;52.408;12.536;2022-09-09T05:56:19;9.20;;;4.47;;
51664;SDS011;37751;52.408;12.536;2022-09-09T05:58:49;12.70;;;4.53;;
51664;SDS011;37751;52.408;12.536;2022-09-09T06:01:38;9.15;;;4.53;;
51664;SDS011;37751;52.408;12.536;2022-09-09T06:04:06;11.00;;;4.38;;
51664;SDS011;37751;52.408;12.536;2022-09-09T06:06:35;5.25;;;4.45;;
51664;SDS011;37751;52.408;12.536;2022-09-09T06:09:06;8.73;;;4.22;;
51664;SDS011;37751;52.408;12.536;2022-09-09T06:11:36;5.78;;;3.90;;
51664;SDS011;37751;52.408;12.536;2022-09-09T06:14:05;11.25;;;4.53;;
51664;SDS011;37751;52.408;12.536;2022-09-09T06:16:32;8.38;;;3.70;;
51664;SDS011;37751;52.408;12.536;2022-09-09T06:19:00;9.48;;;4.07;;
51664;SDS011;37751;52.408;12.536;2022-09-09T06:21:30;10.35;;;4.22;;
51664;SDS011;37751;52.408;12.536;2022-09-09T06:23:59;9.63;;;4.10;;
51664;SDS011;37751;52.408;12.536;2022-09-09T06:26:30;4.63;;;3.30;;
51664;SDS011;37751;52.408;12.536;2022-09-09T06:29:03;7.93;;;3.50;;
51664;SDS011;37751;52.408;12.536;2022-09-09T06:31:32;5.20;;;3.03;;
51664;SDS011;37751;52.408;12.536;2022-09-09T06:34:01;4.32;;;3.45;;
51664;SDS011;37751;52.408;12.536;2022-09-09T06:36:29;9.00;;;3.55;;
51664;SDS011;37751;52.408;12.536;2022-09-09T06:39:02;10.45;;;3.30;;
51664;SDS011;37751;52.408;12.536;2022-09-09T06:41:31;6.03;;;3.15;;
51664;SDS011;37751;52.408;12.536;2022-09-09T06:43:59;7.47;;;3.10;;
51664;SDS011;37751;52.408;12.536;2022-09-09T06:46:27;5.43;;;3.08;;
51664;SDS011;37751;52.408;12.536;2022-09-09T06:48:58;5.60;;;2.60;;
51664;SDS011;37751;52.408;12.536;2022-09-09T06:51:29;9.20;;;2.88;;
51664;SDS011;37751;52.408;12.536;2022-09-09T06:54:00;9.13;;;3.08;;
51664;SDS011;37751;52.408;12.536;2022-09-09T06:56:30;6.03;;;2.45;;
51664;SDS011;37751;52.408;12.536;2022-09-09T06:59:00;8.27;;;2.55;;
51664;SDS011;37751;52.408;12.536;2022-09-09T07:01:33;9.20;;;2.38;;
51664;SDS011;37751;52.408;12.536;2022-09-09T07:04:03;6.22;;;2.15;;
51664;SDS011;37751;52.408;12.536;2022-09-09T07:06:34;13.70;;;2.35;;
51664;SDS011;37751;52.408;12.536;2022-09-09T07:09:04;4.97;;;2.10;;
51664;SDS011;37751;52.408;12.536;2022-09-09T07:11:37;8.57;;;3.05;;
51664;SDS011;37751;52.408;12.536;2022-09-09T07:14:15;3.35;;;1.90;;
51664;SDS011;37751;52.408;12.536;2022-09-09T07:16:43;5.32;;;2.05;;
51664;SDS011;37751;52.408;12.536;2022-09-09T07:19:11;9.70;;;1.92;;
51664;SDS011;37751;52.408;12.536;2022-09-09T07:21:40;6.88;;;2.13;;
51664;SDS011;37751;52.408;12.536;2022-09-09T07:24:07;7.82;;;1.95;;
51664;SDS011;37751;52.408;12.536;2022-09-09T07:26:36;6.75;;;1.58;;
51664;SDS011;37751;52.408;12.536;2022-09-09T07:29:04;6.63;;;2.00;;
51664;SDS011;37751;52.408;12.536;2022-09-09T07:31:33;5.57;;;1.58;;
51664;SDS011;37751;52.408;12.536;2022-09-09T07:34:03;2.80;;;1.10;;
51664;SDS011;37751;52.408;12.536;2022-09-09T07:36:31;6.53;;;1.40;;
51664;SDS011;37751;52.408;12.536;2022-09-09T07:39:03;4.15;;;1.40;;
51664;SDS011;37751;52.408;12.536;2022-09-09T07:44:09;6.85;;;2.20;;
51664;SDS011;37751;52.408;12.536;2022-09-09T07:46:48;7.70;;;1.52;;
51664;SDS011;37751;52.408;12.536;2022-09-09T07:49:15;7.00;;;1.30;;
51664;SDS011;37751;52.408;12.536;2022-09-09T07:51:51;6.20;;;1.38;;
51664;SDS011;37751;52.408;12.536;2022-09-09T07:54:18;7.38;;;1.70;;
51664;SDS011;37751;52.408;12.536;2022-09-09T07:56:46;2.70;;;1.50;;
51664;SDS011;37751;52.408;12.536;2022-09-09T07:59:13;5.93;;;1.70;;
51664;SDS011;37751;52.408;12.536;2022-09-09T08:01:41;3.08;;;1.17;;
51664;SDS011;37751;52.408;12.536;2022-09-09T08:04:21;4.32;;;1.40;;
51664;SDS011;37751;52.408;12.536;2022-09-09T08:06:51;3.13;;;1.40;;
51664;SDS011;37751;52.408;12.536;2022-09-09T08:09:22;2.35;;;1.33;;
51664;SDS011;37751;52.408;12.536;2022-09-09T08:11:51;6.88;;;1.40;;
51664;SDS011;37751;52.408;12.536;2022-09-09T08:14:19;9.10;;;2.08;;
51664;SDS011;37751;52.408;12.536;2022-09-09T08:16:47;4.38;;;1.60;;
51664;SDS011;37751;52.408;12.536;2022-09-09T08:19:15;5.63;;;1.08;;
51664;SDS011;37751;52.408;12.536;2022-09-09T08:21:43;3.42;;;1.00;;
51664;SDS011;37751;52.408;12.536;2022-09-09T08:24:11;4.90;;;1.20;;
51664;SDS011;37751;52.408;12.536;2022-09-09T08:26:40;6.78;;;1.10;;
51664;SDS011;37751;52.408;12.536;2022-09-09T08:29:10;4.50;;;1.30;;
51664;SDS011;37751;52.408;12.536;2022-09-09T08:31:41;5.05;;;1.30;;
51664;SDS011;37751;52.408;12.536;2022-09-09T08:34:13;6.78;;;1.10;;
51664;SDS011;37751;52.408;12.536;2022-09-09T08:36:42;5.90;;;1.20;;
51664;SDS011;37751;52.408;12.536;2022-09-09T08:39:12;4.55;;;1.27;;
51664;SDS011;37751;52.408;12.536;2022-09-09T08:51:07;4.45;;;1.20;;
51664;SDS011;37751;52.408;12.536;2022-09-09T08:53:38;5.85;;;1.35;;
51664;SDS011;37751;52.408;12.536;2022-09-09T08:56:12;3.03;;;0.95;;
51664;SDS011;37751;52.408;12.536;2022-09-09T08:58:49;3.63;;;1.10;;
51664;SDS011;37751;52.408;12.536;2022-09-09T09:09:51;3.90;;;0.80;;
51664;SDS011;37751;52.408;12.536;2022-09-09T09:12:25;5.22;;;1.10;;
51664;SDS011;37751;52.408;12.536;2022-09-09T09:15:01;7.43;;;1.80;;
51664;SDS011;37751;52.408;12.536;2022-09-09T09:17:28;3.80;;;0.90;;
51664;SDS011;37751;52.408;12.536;2022-09-09T09:20:05;10.15;;;1.27;;
51664;SDS011;37751;52.408;12.536;2022-09-09T09:22:51;4.85;;;1.17;;
51664;SDS011;37751;52.408;12.536;2022-09-09T09:25:31;6.68;;;1.30;;
51664;SDS011;37751;52.408;12.536;2022-09-09T09:28:14;5.07;;;1.33;;
51664;SDS011;37751;52.408;12.536;2022-09-09T09:34:10;6.13;;;1.27;;
51664;SDS011;37751;52.408;12.536;2022-09-09T09:36:25;3.20;;;0.77;;
51664;SDS011;37751;52.408;12.536;2022-09-09T09:42:29;10.82;;;1.30;;
51664;SDS011;37751;52.408;12.536;2022-09-09T09:44:56;3.03;;;0.80;;
51664;SDS011;37751;52.408;12.536;2022-09-09T09:48:01;5.30;;;1.02;;
51664;SDS011;37751;52.408;12.536;2022-09-09T09:50:33;6.38;;;1.00;;
51664;SDS011;37751;52.408;12.536;2022-09-09T09:53:02;3.13;;;0.98;;
51664;SDS011;37751;52.408;12.536;2022-09-09T09:55:31;5.78;;;1.00;;
51664;SDS011;37751;52.408;12.536;2022-09-09T09:58:04;4.20;;;1.05;;
51664;SDS011;37751;52.408;12.536;2022-09-09T10:00:33;9.35;;;1.10;;
51664;SDS011;37751;52.408;12.536;2022-09-09T10:03:12;4.70;;;1.00;;
51664;SDS011;37751;52.408;12.536;2022-09-09T10:06:03;4.57;;;0.80;;
51664;SDS011;37751;52.408;12.536;2022-09-09T10:08:33;4.65;;;1.60;;
51664;SDS011;37751;52.408;12.536;2022-09-09T10:14:13;9.63;;;1.10;;
51664;SDS011;37751;52.408;12.536;2022-09-09T10:17:12;4.63;;;1.23;;
51664;SDS011;37751;52.408;12.536;2022-09-09T10:22:36;3.42;;;1.10;;
51664;SDS011;37751;52.408;12.536;2022-09-09T10:33:32;1.80;;;0.57;;
51664;SDS011;37751;52.408;12.536;2022-09-09T10:36:49;3.15;;;1.05;;
51664;SDS011;37751;52.408;12.536;2022-09-09T10:39:35;7.05;;;0.95;;
51664;SDS011;37751;52.408;12.536;2022-09-09T10:50:52;7.07;;;0.85;;
51664;SDS011;37751;52.408;12.536;2022-09-09T10:56:11;3.65;;;0.85;;
51664;SDS011;37751;52.408;12.536;2022-09-09T10:58:44;5.45;;;1.10;;
51664;SDS011;37751;52.408;12.536;2022-09-09T11:01:23;7.47;;;1.20;;
51664;SDS011;37751;52.408;12.536;2022-09-09T11:04:10;9.52;;;1.63;;
51664;SDS011;37751;52.408;12.536;2022-09-09T11:06:49;5.78;;;0.98;;
51664;SDS011;37751;52.408;12.536;2022-09-09T11:09:22;3.20;;;0.90;;
51664;SDS011;37751;52.408;12.536;2022-09-09T11:11:58;6.95;;;1.02;;
51664;SDS011;37751;52.408;12.536;2022-09-09T11:14:30;5.60;;;1.10;;
51664;SDS011;37751;52.408;12.536;2022-09-09T11:17:06;3.85;;;1.00;;
51664;SDS011;37751;52.408;12.536;2022-09-09T11:19:43;2.67;;;0.88;;
51664;SDS011;37751;52.408;12.536;2022-09-09T11:22:27;5.30;;;1.00;;
51664;SDS011;37751;52.408;12.536;2022-09-09T11:28:05;3.25;;;0.60;;
51664;SDS011;37751;52.408;12.536;2022-09-09T11:39:44;5.60;;;1.15;;
51664;SDS011;37751;52.408;12.536;2022-09-09T11:42:22;4.50;;;1.50;;
51664;SDS011;37751;52.408;12.536;2022-09-09T11:44:50;5.03;;;1.50;;
51664;SDS011;37751;52.408;12.536;2022-09-09T11:47:29;5.15;;;0.93;;
51664;SDS011;37751;52.408;12.536;2022-09-09T11:55:39;5.30;;;0.85;;
51664;SDS011;37751;52.408;12.536;2022-09-09T12:00:38;6.97;;;1.38;;
51664;SDS011;37751;52.408;12.536;2022-09-09T12:03:31;6.72;;;1.00;;
51664;SDS011;37751;52.408;12.536;2022-09-09T12:06:30;5.55;;;0.90;;
51664;SDS011;37751;52.408;12.536;2022-09-09T12:17:10;4.88;;;0.73;;
51664;SDS011;37751;52.408;12.536;2022-09-09T12:20:54;3.45;;;0.85;;
51664;SDS011;37751;52.408;12.536;2022-09-09T12:25:58;4.78;;;0.85;;
51664;SDS011;37751;52.408;12.536;2022-09-09T12:31:56;5.15;;;0.82;;
51664;SDS011;37751;52.408;12.536;2022-09-09T12:37:48;4.30;;;0.90;;
51664;SDS011;37751;52.408;12.536;2022-09-09T12:40:24;3.10;;;0.80;;
51664;SDS011;37751;52.408;12.536;2022-09-09T12:43:01;6.32;;;1.30;;
51664;SDS011;37751;52.408;12.536;2022-09-09T12:45:45;2.95;;;0.70;;
51664;SDS011;37751;52.408;12.536;2022-09-09T12:48:14;5.47;;;0.60;;
51664;SDS011;37751;52.408;12.536;2022-09-09T12:50:47;2.20;;;0.95;;
51664;SDS011;37751;52.408;12.536;2022-09-09T12:53:21;5.55;;;0.70;;
51664;SDS011;37751;52.408;12.536;2022-09-09T12:55:59;3.10;;;0.90;;
51664;SDS011;37751;52.408;12.536;2022-09-09T12:58:33;6.47;;;0.75;;
51664;SDS011;37751;52.408;12.536;2022-09-09T13:01:06;4.80;;;1.42;;
51664;SDS011;37751;52.408;12.536;2022-09-09T13:03:49;6.55;;;1.08;;
51664;SDS011;37751;52.408;12.536;2022-09-09T13:06:20;6.68;;;1.25;;
51664;SDS011;37751;52.408;12.536;2022-09-09T13:08:55;8.68;;;3.15;;
51664;SDS011;37751;52.408;12.536;2022-09-09T13:13:55;3.15;;;1.05;;
51664;SDS011;37751;52.408;12.536;2022-09-09T13:16:28;6.55;;;1.50;;
51664;SDS011;37751;52.408;12.536;2022-09-09T13:19:00;2.55;;;0.88;;
51664;SDS011;37751;52.408;12.536;2022-09-09T13:21:34;10.35;;;1.30;;
51664;SDS011;37751;52.408;12.536;2022-09-09T13:24:05;9.43;;;1.00;;
51664;SDS011;37751;52.408;12.536;2022-09-09T13:26:54;4.15;;;1.00;;
51664;SDS011;37751;52.408;12.536;2022-09-09T13:29:23;7.28;;;1.05;;
51664;SDS011;37751;52.408;12.536;2022-09-09T13:31:50;3.33;;;1.10;;
51664;SDS011;37751;52.408;12.536;2022-09-09T13:34:30;7.70;;;1.17;;
51664;SDS011;37751;52.408;12.536;2022-09-09T13:37:00;8.35;;;1.13;;
51664;SDS011;37751;52.408;12.536;2022-09-09T13:39:35;6.65;;;1.00;;
51664;SDS011;37751;52.408;12.536;2022-09-09T13:42:03;4.63;;;0.77;;
51664;SDS011;37751;52.408;12.536;2022-09-09T13:44:36;2.60;;;0.60;;
51664;SDS011;37751;52.408;12.536;2022-09-09T13:47:20;2.08;;;0.80;;
51664;SDS011;37751;52.408;12.536;2022-09-09T13:49:54;6.57;;;1.13;;
51664;SDS011;37751;52.408;12.536;2022-09-09T13:52:20;5.63;;;1.08;;
51664;SDS011;37751;52.408;12.536;2022-09-09T13:54:48;6.07;;;1.20;;
51664;SDS011;37751;52.408;12.536;2022-09-09T13:57:22;6.25;;;1.13;;
51664;SDS011;37751;52.408;12.536;2022-09-09T13:59:54;2.63;;;0.80;;
51664;SDS011;37751;52.408;12.536;2022-09-09T14:02:36;4.85;;;1.80;;
51664;SDS011;37751;52.408;12.536;2022-09-09T14:05:04;8.50;;;1.10;;
51664;SDS011;37751;52.408;12.536;2022-09-09T14:07:32;5.10;;;1.15;;
51664;SDS011;37751;52.408;12.536;2022-09-09T14:09:58;3.88;;;0.77;;
51664;SDS011;37751;52.408;12.536;2022-09-09T14:12:26;5.38;;;0.90;;
51664;SDS011;37751;52.408;12.536;2022-09-09T14:14:53;5.07;;;1.10;;
51664;SDS011;37751;52.408;12.536;2022-09-09T14:17:19;5.72;;;1.05;;
51664;SDS011;37751;52.408;12.536;2022-09-09T14:19:48;7.85;;;1.60;;
51664;SDS011;37751;52.408;12.536;2022-09-09T14:22:14;7.15;;;1.23;;
51664;SDS011;37751;52.408;12.536;2022-09-09T14:24:41;5.95;;;1.00;;
51664;SDS011;37751;52.408;12.536;2022-09-09T14:27:08;4.43;;;1.45;;
51664;SDS011;37751;52.408;12.536;2022-09-09T14:29:35;4.47;;;0.90;;
51664;SDS011;37751;52.408;12.536;2022-09-09T14:32:02;6.95;;;1.10;;
51664;SDS011;37751;52.408;12.536;2022-09-09T14:34:29;4.68;;;1.15;;
51664;SDS011;37751;52.408;12.536;2022-09-09T14:36:58;3.92;;;1.15;;
51664;SDS011;37751;52.408;12.536;2022-09-09T14:39:25;6.20;;;1.30;;
51664;SDS011;37751;52.408;12.536;2022-09-09T14:41:52;6.45;;;1.20;;
51664;SDS011;37751;52.408;12.536;2022-09-09T14:44:19;4.07;;;1.00;;
51664;SDS011;37751;52.408;12.536;2022-09-09T14:46:45;4.97;;;1.08;;
51664;SDS011;37751;52.408;12.536;2022-09-09T14:49:12;2.00;;;0.73;;
51664;SDS011;37751;52.408;12.536;2022-09-09T14:51:39;6.63;;;0.82;;
51664;SDS011;37751;52.408;12.536;2022-09-09T14:54:05;5.38;;;1.05;;
51664;SDS011;37751;52.408;12.536;2022-09-09T14:56:32;4.03;;;1.30;;
51664;SDS011;37751;52.408;12.536;2022-09-09T14:59:03;5.25;;;0.77;;
51664;SDS011;37751;52.408;12.536;2022-09-09T15:01:30;6.80;;;0.95;;
51664;SDS011;37751;52.408;12.536;2022-09-09T15:03:59;6.43;;;1.30;;
51664;SDS011;37751;52.408;12.536;2022-09-09T15:06:29;5.97;;;1.67;;
51664;SDS011;37751;52.408;12.536;2022-09-09T15:08:59;9.77;;;1.50;;
51664;SDS011;37751;52.408;12.536;2022-09-09T15:11:27;8.55;;;1.33;;
51664;SDS011;37751;52.408;12.536;2022-09-09T15:13:59;5.53;;;1.42;;
51664;SDS011;37751;52.408;12.536;2022-09-09T15:16:27;5.00;;;1.80;;
51664;SDS011;37751;52.408;12.536;2022-09-09T15:18:55;8.93;;;1.42;;
51664;SDS011;37751;52.408;12.536;2022-09-09T15:21:25;9.70;;;1.30;;
51664;SDS011;37751;52.408;12.536;2022-09-09T15:23:54;4.45;;;1.40;;
51664;SDS011;37751;52.408;12.536;2022-09-09T15:26:22;5.75;;;1.30;;
51664;SDS011;37751;52.408;12.536;2022-09-09T15:28:50;8.85;;;1.38;;
51664;SDS011;37751;52.408;12.536;2022-09-09T15:31:18;4.13;;;1.35;;
51664;SDS011;37751;52.408;12.536;2022-09-09T15:33:54;5.18;;;1.70;;
51664;SDS011;37751;52.408;12.536;2022-09-09T15:36:29;7.38;;;1.58;;
51664;SDS011;37751;52.408;12.536;2022-09-09T15:39:10;4.38;;;1.30;;
51664;SDS011;37751;52.408;12.536;2022-09-09T15:41:42;7.43;;;1.70;;
51664;SDS011;37751;52.408;12.536;2022-09-09T15:44:10;14.45;;;2.08;;
51664;SDS011;37751;52.408;12.536;2022-09-09T15:46:42;11.10;;;1.92;;
51664;SDS011;37751;52.408;12.536;2022-09-09T15:49:17;6.93;;;1.17;;
51664;SDS011;37751;52.408;12.536;2022-09-09T15:51:52;9.13;;;1.23;;
51664;SDS011;37751;52.408;12.536;2022-09-09T15:54:22;9.40;;;2.08;;
51664;SDS011;37751;52.408;12.536;2022-09-09T15:56:55;7.88;;;1.63;;
51664;SDS011;37751;52.408;12.536;2022-09-09T15:59:25;14.82;;;2.28;;
51664;SDS011;37751;52.408;12.536;2022-09-09T16:01:54;15.98;;;2.05;;
51664;SDS011;37751;52.408;12.536;2022-09-09T16:04:22;6.18;;;1.90;;
51664;SDS011;37751;52.408;12.536;2022-09-09T16:06:50;5.68;;;2.38;;
51664;SDS011;37751;52.408;12.536;2022-09-09T16:09:25;4.65;;;1.80;;
51664;SDS011;37751;52.408;12.536;2022-09-09T16:11:54;9.07;;;2.10;;
51664;SDS011;37751;52.408;12.536;2022-09-09T16:14:27;4.45;;;1.58;;
51664;SDS011;37751;52.408;12.536;2022-09-09T16:16:53;7.47;;;1.80;;
51664;SDS011;37751;52.408;12.536;2022-09-09T16:19:21;10.85;;;2.22;;
51664;SDS011;37751;52.408;12.536;2022-09-09T16:21:49;11.70;;;1.42;;
51664;SDS011;37751;52.408;12.536;2022-09-09T16:24:17;11.85;;;1.60;;
51664;SDS011;37751;52.408;12.536;2022-09-09T16:26:46;2.50;;;1.13;;
51664;SDS011;37751;52.408;12.536;2022-09-09T16:29:16;4.55;;;1.10;;
51664;SDS011;37751;52.408;12.536;2022-09-09T16:31:45;7.60;;;1.23;;
51664;SDS011;37751;52.408;12.536;2022-09-09T16:34:13;3.22;;;0.98;;
51664;SDS011;37751;52.408;12.536;2022-09-09T16:36:42;5.25;;;1.10;;
51664;SDS011;37751;52.408;12.536;2022-09-09T16:39:10;4.13;;;1.00;;
51664;SDS011;37751;52.408;12.536;2022-09-09T16:41:40;6.72;;;0.70;;
51664;SDS011;37751;52.408;12.536;2022-09-09T16:44:11;2.60;;;0.77;;
51664;SDS011;37751;52.408;12.536;2022-09-09T16:46:39;8.05;;;1.00;;
51664;SDS011;37751;52.408;12.536;2022-09-09T16:49:09;3.30;;;0.98;;
51664;SDS011;37751;52.408;12.536;2022-09-09T16:51:40;2.15;;;0.85;;
51664;SDS011;37751;52.408;12.536;2022-09-09T16:54:10;3.05;;;0.93;;
51664;SDS011;37751;52.408;12.536;2022-09-09T16:56:38;7.88;;;0.93;;
51664;SDS011;37751;52.408;12.536;2022-09-09T16:59:09;4.60;;;1.02;;
51664;SDS011;37751;52.408;12.536;2022-09-09T17:01:40;4.28;;;1.13;;
51664;SDS011;37751;52.408;12.536;2022-09-09T17:04:10;1.30;;;0.70;;
51664;SDS011;37751;52.408;12.536;2022-09-09T17:06:45;1.33;;;0.73;;
51664;SDS011;37751;52.408;12.536;2022-09-09T17:09:15;3.08;;;0.90;;
51664;SDS011;37751;52.408;12.536;2022-09-09T17:11:42;1.98;;;0.95;;
51664;SDS011;37751;52.408;12.536;2022-09-09T17:14:13;2.65;;;0.80;;
51664;SDS011;37751;52.408;12.536;2022-09-09T17:16:43;3.17;;;1.20;;
51664;SDS011;37751;52.408;12.536;2022-09-09T17:19:10;3.67;;;1.65;;
51664;SDS011;37751;52.408;12.536;2022-09-09T17:21:38;3.97;;;1.33;;
51664;SDS011;37751;52.408;12.536;2022-09-09T17:24:28;4.57;;;1.30;;
51664;SDS011;37751;52.408;12.536;2022-09-09T17:26:55;3.20;;;1.08;;
51664;SDS011;37751;52.408;12.536;2022-09-09T17:29:23;6.00;;;1.08;;
51664;SDS011;37751;52.408;12.536;2022-09-09T17:31:51;4.15;;;0.73;;
51664;SDS011;37751;52.408;12.536;2022-09-09T17:34:18;3.85;;;0.93;;